createdAt,value
2022-09-09T00:02:21.670Z,23.43
2022-09-09T00:05:31.802Z,24.90
2022-09-09T00:08:45.368Z,21.70
2022-09-09T00:11:53.670Z,22.67
2022-09-09T00:15:00.289Z,22.23
2022-09-09T00:18:15.264Z,23.90
2022-09-09T00:21:19.864Z,23.13
2022-09-09T00:24:29.159Z,24.57
2022-09-09T00:27:38.992Z,26.97
2022-09-09T00:30:43.340Z,24.57
2022-09-09T00:33:47.249Z,26.73
2022-09-09T00:36:53.141Z,29.60
2022-09-09T00:40:01.808Z,27.70
2022-09-09T00:43:23.203Z,29.40
2022-09-09T00:46:44.440Z,31.37
2022-09-09T00:50:01.615Z,32.13
2022-09-09T00:53:28.745Z,29.40
2022-09-09T00:56:43.280Z,28.77
2022-09-09T00:59:51.202Z,26.20
2022-09-09T01:03:21.767Z,25.70
2022-09-09T01:06:31.791Z,25.47
2022-09-09T01:09:43.376Z,24.13
2022-09-09T01:12:50.871Z,23.73
2022-09-09T01:15:59.731Z,23.37
2022-09-09T01:19:07.262Z,23.80
2022-09-09T01:22:21.005Z,26.90
2022-09-09T01:25:47.210Z,26.90
2022-09-09T01:28:53.714Z,28.77
2022-09-09T01:31:58.195Z,31.20
2022-09-09T01:35:01.236Z,29.00
2022-09-09T01:38:04.362Z,26.97
2022-09-09T01:41:07.493Z,29.40
2022-09-09T01:44:12.820Z,28.50
2022-09-09T01:47:18.721Z,24.67
2022-09-09T01:50:23.372Z,24.50
2022-09-09T01:53:26.676Z,23.67
2022-09-09T01:56:41.876Z,23.30
2022-09-09T01:59:55.447Z,25.50
2022-09-09T02:03:07.501Z,24.40
2022-09-09T02:06:26.406Z,25.50
2022-09-09T02:09:32.554Z,23.50
2022-09-09T02:12:35.840Z,22.87
2022-09-09T02:15:45.454Z,22.07
2022-09-09T02:18:52.670Z,20.73
2022-09-09T02:21:58.569Z,20.23
2022-09-09T02:25:02.477Z,21.37
2022-09-09T02:28:08.638Z,18.80
2022-09-09T02:31:13.417Z,19.17
2022-09-09T02:34:17.979Z,21.70
2022-09-09T02:37:25.998Z,21.13
2022-09-09T02:40:29.134Z,20.83
2022-09-09T02:43:34.132Z,19.97
2022-09-09T02:46:54.884Z,19.43
2022-09-09T02:50:08.834Z,18.77
2022-09-09T02:53:18.398Z,20.07
2022-09-09T02:56:25.366Z,21.40
2022-09-09T02:59:28.794Z,20.90
2022-09-09T03:02:33.276Z,18.63
2022-09-09T03:05:37.264Z,18.60
2022-09-09T03:08:40.588Z,18.67
2022-09-09T03:11:44.718Z,17.00
2022-09-09T03:14:48.321Z,17.37
2022-09-09T03:17:52.955Z,17.57
2022-09-09T03:20:56.008Z,16.23
2022-09-09T03:23:59.217Z,17.63
2022-09-09T03:27:02.254Z,18.17
2022-09-09T03:30:06.041Z,17.07
2022-09-09T03:33:11.381Z,18.60
2022-09-09T03:36:14.451Z,17.73
2022-09-09T03:39:17.737Z,17.83
2022-09-09T03:42:20.719Z,17.20
2022-09-09T03:45:23.740Z,20.37
2022-09-09T03:48:29.319Z,19.47
2022-09-09T03:51:32.421Z,19.13
2022-09-09T03:54:35.954Z,19.97
2022-09-09T03:57:39.777Z,20.00
2022-09-09T04:00:45.995Z,20.97
2022-09-09T04:03:51.266Z,20.73
2022-09-09T04:06:54.352Z,20.97
2022-09-09T04:09:57.906Z,21.00
2022-09-09T04:13:01.319Z,20.10
2022-09-09T04:16:05.529Z,19.50
2022-09-09T04:19:09.889Z,22.43
2022-09-09T04:22:12.844Z,19.23
2022-09-09T04:25:15.924Z,19.67
2022-09-09T04:28:20.193Z,19.13
2022-09-09T04:31:24.985Z,19.97
2022-09-09T04:34:29.527Z,18.97
2022-09-09T04:37:32.487Z,18.67
2022-09-09T04:40:35.686Z,18.27
2022-09-09T04:43:38.781Z,17.90
2022-09-09T04:46:42.207Z,18.40
2022-09-09T04:49:46.536Z,16.20
2022-09-09T04:52:49.683Z,15.47
2022-09-09T04:55:52.847Z,15.23
2022-09-09T04:58:56.392Z,15.90
2022-09-09T05:02:01.984Z,14.27
2022-09-09T05:05:06.970Z,14.07
2022-09-09T05:08:10.921Z,13.23
2022-09-09T05:11:18.529Z,14.43
2022-09-09T05:14:21.501Z,13.13
2022-09-09T05:17:24.539Z,14.00
2022-09-09T05:20:29.287Z,12.50
2022-09-09T05:23:32.793Z,12.67
2022-09-09T05:26:35.769Z,13.87
2022-09-09T05:29:38.834Z,11.27
2022-09-09T05:32:41.959Z,12.80
2022-09-09T05:35:46.239Z,12.33
2022-09-09T05:38:50.126Z,11.90
2022-09-09T05:41:53.090Z,13.27
2022-09-09T05:44:56.238Z,12.03
2022-09-09T05:48:01.055Z,10.87
2022-09-09T05:51:07.738Z,12.10
2022-09-09T05:54:11.070Z,11.17
2022-09-09T05:57:14.243Z,10.93
2022-09-09T06:00:17.481Z,11.10
2022-09-09T06:03:24.494Z,8.57
2022-09-09T06:06:32.892Z,8.50
2022-09-09T06:09:35.871Z,7.73
2022-09-09T06:12:39.784Z,8.10
2022-09-09T06:15:52.135Z,7.00
2022-09-09T06:18:57.324Z,6.73
2022-09-09T06:22:01.691Z,7.10
2022-09-09T06:25:05.010Z,7.13
2022-09-09T06:28:08.001Z,6.60
2022-09-09T06:31:13.450Z,6.40
2022-09-09T06:34:16.563Z,7.33
2022-09-09T06:37:21.518Z,7.20
2022-09-09T06:40:24.554Z,6.83
2022-09-09T06:43:27.987Z,6.67
2022-09-09T06:46:33.869Z,7.93
2022-09-09T06:49:36.967Z,7.27
2022-09-09T06:52:41.326Z,7.60
2022-09-09T06:55:45.841Z,6.73
2022-09-09T06:58:49.794Z,7.23
2022-09-09T07:01:56.248Z,8.67
2022-09-09T07:04:59.718Z,8.67
2022-09-09T07:08:04.872Z,7.00
2022-09-09T07:11:12.397Z,7.03
2022-09-09T07:14:16.356Z,6.50
2022-09-09T07:17:19.311Z,5.83
2022-09-09T07:20:22.352Z,6.37
2022-09-09T07:23:26.990Z,6.00
2022-09-09T07:26:32.092Z,5.27
2022-09-09T07:29:35.066Z,6.27
2022-09-09T07:32:38.053Z,5.30
2022-09-09T07:35:41.608Z,6.07
2022-09-09T07:38:47.577Z,5.60
2022-09-09T07:41:51.913Z,5.40
2022-09-09T07:44:56.024Z,5.30
2022-09-09T07:47:59.046Z,5.20
2022-09-09T07:51:08.256Z,4.60
2022-09-09T07:54:14.806Z,4.80
2022-09-09T07:57:19.533Z,5.00
2022-09-09T08:00:23.128Z,5.57
2022-09-09T08:03:26.262Z,4.37
2022-09-09T08:06:30.313Z,4.03
2022-09-09T08:09:34.689Z,4.47
2022-09-09T08:12:37.675Z,4.07
2022-09-09T08:15:40.726Z,4.50
2022-09-09T08:18:44.163Z,5.67
2022-09-09T08:21:47.458Z,4.57
2022-09-09T08:24:51.793Z,4.30
2022-09-09T08:27:55.405Z,4.43
2022-09-09T08:31:06.282Z,3.57
2022-09-09T08:34:10.033Z,4.00
2022-09-09T08:37:13.005Z,4.50
2022-09-09T08:40:24.768Z,4.10
2022-09-09T08:43:30.242Z,3.97
2022-09-09T08:46:41.157Z,4.50
2022-09-09T08:50:01.078Z,3.93
2022-09-09T08:53:06.824Z,4.20
2022-09-09T08:56:16.216Z,4.37
2022-09-09T08:59:21.105Z,3.97
2022-09-09T09:02:28.662Z,3.60
2022-09-09T09:05:39.081Z,3.87
2022-09-09T09:08:50.039Z,3.67
2022-09-09T09:12:15.431Z,3.33
2022-09-09T09:15:22.788Z,3.90
2022-09-09T09:18:25.898Z,3.30
2022-09-09T09:21:36.463Z,3.40
2022-09-09T09:24:48.584Z,3.70
2022-09-09T09:28:01.603Z,3.50
2022-09-09T09:31:08.154Z,2.70
2022-09-09T09:34:12.994Z,3.10
2022-09-09T09:37:20.580Z,3.13
2022-09-09T09:40:25.119Z,2.80
2022-09-09T09:43:32.398Z,2.57
2022-09-09T09:46:35.474Z,2.77
2022-09-09T09:49:38.686Z,1.93
2022-09-09T09:52:45.620Z,1.73
2022-09-09T09:55:55.030Z,2.20
2022-09-09T09:58:59.643Z,2.23
2022-09-09T10:02:20.639Z,1.87
2022-09-09T10:05:27.538Z,1.77
2022-09-09T10:08:31.097Z,1.80
2022-09-09T10:11:47.394Z,1.70
2022-09-09T10:15:02.495Z,1.70
2022-09-09T10:18:19.978Z,1.60
2022-09-09T10:22:02.874Z,1.87
2022-09-09T10:25:29.622Z,1.80
2022-09-09T10:28:57.414Z,2.10
2022-09-09T10:32:16.121Z,1.57
2022-09-09T10:35:32.774Z,1.17
2022-09-09T10:38:44.417Z,1.37
2022-09-09T10:41:55.785Z,1.30
2022-09-09T10:45:15.792Z,1.50
2022-09-09T10:48:33.170Z,1.23
2022-09-09T10:51:46.415Z,1.40
2022-09-09T10:54:59.063Z,1.30
2022-09-09T10:58:05.961Z,1.50
2022-09-09T11:01:16.977Z,0.80
2022-09-09T11:04:25.808Z,1.23
2022-09-09T11:07:36.282Z,1.03
2022-09-09T11:10:44.618Z,0.97
2022-09-09T11:13:52.408Z,0.93
2022-09-09T11:17:01.146Z,1.00
2022-09-09T11:20:08.611Z,1.00
2022-09-09T11:23:17.222Z,0.90
2022-09-09T11:26:30.054Z,1.00
2022-09-09T11:30:04.346Z,1.30
2022-09-09T11:33:25.203Z,1.37
2022-09-09T11:36:45.243Z,1.00
2022-09-09T11:40:15.968Z,1.00
2022-09-09T11:43:24.782Z,1.33
2022-09-09T11:46:36.609Z,0.93
2022-09-09T11:49:43.510Z,1.30
2022-09-09T11:52:49.513Z,1.20
2022-09-09T11:56:13.952Z,1.27
2022-09-09T11:59:23.057Z,1.30
2022-09-09T12:02:27.719Z,1.23
2022-09-09T12:05:40.298Z,1.20
2022-09-09T12:08:47.412Z,1.17
2022-09-09T12:11:50.478Z,1.03
2022-09-09T12:15:01.178Z,1.30
2022-09-09T12:18:04.865Z,1.10
2022-09-09T12:21:16.411Z,1.13
2022-09-09T12:24:26.999Z,1.50
2022-09-09T12:27:35.481Z,1.40
2022-09-09T12:30:49.183Z,1.40
2022-09-09T12:33:53.705Z,1.30
2022-09-09T12:37:02.101Z,1.30
2022-09-09T12:40:18.502Z,2.10
2022-09-09T12:43:23.440Z,2.00
2022-09-09T12:46:35.001Z,1.53
2022-09-09T12:49:42.086Z,1.47
2022-09-09T12:52:46.712Z,1.30
2022-09-09T12:55:54.843Z,1.33
2022-09-09T12:58:59.319Z,1.17
2022-09-09T13:02:02.860Z,1.60
2022-09-09T13:05:17.357Z,1.30
2022-09-09T13:08:21.703Z,1.47
2022-09-09T13:11:30.923Z,1.57
2022-09-09T13:14:38.256Z,1.70
2022-09-09T13:17:41.806Z,1.63
2022-09-09T13:20:48.948Z,1.90
2022-09-09T13:23:53.189Z,1.97
2022-09-09T13:26:59.112Z,2.13
2022-09-09T13:30:03.064Z,1.57
2022-09-09T13:33:22.459Z,2.13
2022-09-09T13:36:33.214Z,2.20
2022-09-09T13:39:37.637Z,2.63
2022-09-09T13:42:44.495Z,2.80
2022-09-09T13:45:56.249Z,3.00
2022-09-09T13:49:00.083Z,2.47
2022-09-09T13:52:10.938Z,2.60
2022-09-09T13:55:14.052Z,3.03
2022-09-09T13:58:20.099Z,3.03
2022-09-09T14:01:27.570Z,3.30
2022-09-09T14:04:32.372Z,3.70
2022-09-09T14:07:35.395Z,4.27
2022-09-09T14:10:38.391Z,3.50
2022-09-09T14:13:42.732Z,3.73
2022-09-09T14:16:46.384Z,4.20
2022-09-09T14:19:49.313Z,3.60
2022-09-09T14:22:52.566Z,3.57
2022-09-09T14:25:56.241Z,3.40
2022-09-09T14:29:01.858Z,4.13
2022-09-09T14:32:08.331Z,4.20
2022-09-09T14:35:13.630Z,4.43
2022-09-09T14:38:19.046Z,4.57
2022-09-09T14:41:23.467Z,2.30
2022-09-09T14:44:27.814Z,2.63
2022-09-09T14:47:31.317Z,2.10
2022-09-09T14:50:35.770Z,2.40
2022-09-09T14:53:39.045Z,2.50
2022-09-09T14:56:42.180Z,2.40
2022-09-09T14:59:46.589Z,2.40
2022-09-09T15:02:49.612Z,2.20
2022-09-09T15:05:52.548Z,3.90
2022-09-09T15:08:58.640Z,2.50
2022-09-09T15:12:02.856Z,2.67
2022-09-09T15:15:08.054Z,2.70
2022-09-09T15:18:11.065Z,2.27
2022-09-09T15:21:16.398Z,3.23
2022-09-09T15:24:19.395Z,2.60
2022-09-09T15:27:24.102Z,3.10
2022-09-09T15:30:28.521Z,3.10
2022-09-09T15:33:31.484Z,3.20
2022-09-09T15:36:36.160Z,3.23
2022-09-09T15:39:39.190Z,3.37
2022-09-09T15:42:42.195Z,3.43
2022-09-09T15:45:48.628Z,2.60
2022-09-09T15:48:53.865Z,2.13
2022-09-09T15:51:59.916Z,2.33
2022-09-09T15:55:02.923Z,2.27
2022-09-09T15:58:05.887Z,1.80
2022-09-09T16:01:12.152Z,2.13
2022-09-09T16:04:16.583Z,2.27
2022-09-09T16:07:20.212Z,2.03
2022-09-09T16:10:23.253Z,2.43
2022-09-09T16:13:27.152Z,1.87
2022-09-09T16:16:32.100Z,1.40
2022-09-09T16:19:36.283Z,1.70
2022-09-09T16:22:39.275Z,2.07
2022-09-09T16:25:43.100Z,1.80
2022-09-09T16:28:47.355Z,2.60
2022-09-09T16:31:52.790Z,1.90
2022-09-09T16:34:55.741Z,1.80
2022-09-09T16:37:58.671Z,1.90
2022-09-09T16:41:01.929Z,2.47
2022-09-09T16:44:06.813Z,1.70
2022-09-09T16:47:11.171Z,1.90
2022-09-09T16:50:14.227Z,1.97
2022-09-09T16:53:17.254Z,1.70
2022-09-09T16:56:21.776Z,1.87
2022-09-09T16:59:24.828Z,1.97
2022-09-09T17:02:29.696Z,2.10
2022-09-09T17:05:33.649Z,2.00
2022-09-09T17:08:36.766Z,1.53
2022-09-09T17:11:40.847Z,2.77
2022-09-09T17:14:44.060Z,1.90
2022-09-09T17:17:50.089Z,1.80
2022-09-09T17:20:53.092Z,1.40
2022-09-09T17:23:57.582Z,1.50
2022-09-09T17:27:01.774Z,1.40
2022-09-09T17:30:05.153Z,1.43
2022-09-09T17:33:09.452Z,1.40
2022-09-09T17:36:15.104Z,1.40
2022-09-09T17:39:18.158Z,1.40
2022-09-09T17:42:21.166Z,1.70
2022-09-09T17:45:24.120Z,1.37
2022-09-09T17:48:28.414Z,1.63
2022-09-09T17:51:33.246Z,1.40
2022-09-09T17:54:37.380Z,2.23
2022-09-09T17:57:40.565Z,1.90
2022-09-09T18:00:43.580Z,2.00
2022-09-09T18:03:48.954Z,2.17
2022-09-09T18:06:54.422Z,2.00
2022-09-09T18:09:57.496Z,2.37
2022-09-09T18:13:02.129Z,2.30
2022-09-09T18:16:09.521Z,2.20
2022-09-09T18:19:16.449Z,2.13
2022-09-09T18:22:19.827Z,2.33
2022-09-09T18:25:22.765Z,2.80
2022-09-09T18:28:26.186Z,2.67
2022-09-09T18:31:30.522Z,3.17
2022-09-09T18:34:35.646Z,2.67
2022-09-09T18:37:39.716Z,2.90
2022-09-09T18:40:42.721Z,3.37
2022-09-09T18:43:46.277Z,3.43
2022-09-09T18:46:50.486Z,3.57
2022-09-09T18:49:55.481Z,3.60
2022-09-09T18:52:58.509Z,3.90
2022-09-09T18:56:04.430Z,4.23
2022-09-09T18:59:10.430Z,4.10
2022-09-09T19:02:13.419Z,4.27
2022-09-09T19:05:17.837Z,4.00
2022-09-09T19:08:21.214Z,4.07
2022-09-09T19:11:25.093Z,4.60
2022-09-09T19:14:28.897Z,4.07
2022-09-09T19:17:33.492Z,4.50
2022-09-09T19:20:38.173Z,5.53
2022-09-09T19:23:42.041Z,5.47
2022-09-09T19:26:48.138Z,5.93
2022-09-09T19:29:56.378Z,5.40
2022-09-09T19:33:00.933Z,5.70
2022-09-09T19:36:09.198Z,5.73
2022-09-09T19:39:12.224Z,5.90
2022-09-09T19:42:15.596Z,5.53
2022-09-09T19:45:18.615Z,5.60
2022-09-09T19:48:21.627Z,5.70
2022-09-09T19:51:26.775Z,5.43
2022-09-09T19:54:29.864Z,5.70
2022-09-09T19:57:32.851Z,5.60
2022-09-09T20:00:39.558Z,6.00
2022-09-09T20:03:44.882Z,6.20
2022-09-09T20:06:49.242Z,5.70
2022-09-09T20:09:54.739Z,5.47
2022-09-09T20:12:57.703Z,5.50
2022-09-09T20:16:01.947Z,5.90
2022-09-09T20:19:07.554Z,5.07
2022-09-09T20:22:12.014Z,6.00
2022-09-09T20:25:16.098Z,6.07
2022-09-09T20:28:20.121Z,5.60
2022-09-09T20:31:25.302Z,5.27
2022-09-09T20:34:29.958Z,5.37
2022-09-09T20:37:34.245Z,5.57
2022-09-09T20:40:38.021Z,5.13
2022-09-09T20:43:41.579Z,5.70
2022-09-09T20:46:47.897Z,5.43
2022-09-09T20:49:50.919Z,5.40
2022-09-09T20:52:55.200Z,5.23
2022-09-09T20:56:00.856Z,4.73
2022-09-09T20:59:04.229Z,5.43
2022-09-09T21:02:08.107Z,5.27
2022-09-09T21:05:11.875Z,4.43
2022-09-09T21:08:16.171Z,5.20
2022-09-09T21:11:19.171Z,4.70
2022-09-09T21:14:22.415Z,4.60
2022-09-09T21:17:25.424Z,4.73
2022-09-09T21:20:28.338Z,4.67
2022-09-09T21:23:32.636Z,4.40
2022-09-09T21:26:36.223Z,4.03
2022-09-09T21:29:39.159Z,4.03
2022-09-09T21:32:42.141Z,4.20
2022-09-09T21:35:45.515Z,4.70
2022-09-09T21:38:50.434Z,4.13
2022-09-09T21:41:53.474Z,3.40
2022-09-09T21:44:56.493Z,3.87
2022-09-09T21:48:00.315Z,3.53
2022-09-09T21:51:05.026Z,3.43
2022-09-09T21:54:09.305Z,2.67
2022-09-09T21:57:14.218Z,2.70
2022-09-09T22:00:18.181Z,2.37
2022-09-09T22:03:21.150Z,2.20
2022-09-09T22:06:24.084Z,2.10
2022-09-09T22:09:28.511Z,1.90
2022-09-09T22:12:32.657Z,1.40
2022-09-09T22:15:36.150Z,1.60
2022-09-09T22:18:39.494Z,1.50
2022-09-09T22:21:42.540Z,1.70
2022-09-09T22:24:46.892Z,1.97
2022-09-09T22:27:49.846Z,1.87
2022-09-09T22:30:52.804Z,1.70
2022-09-09T22:33:55.985Z,2.00
2022-09-09T22:36:59.169Z,1.80
2022-09-09T22:40:03.859Z,2.43
2022-09-09T22:43:07.993Z,1.93
2022-09-09T22:46:11.547Z,2.27
2022-09-09T22:49:14.653Z,2.50
2022-09-09T22:52:17.567Z,2.33
2022-09-09T22:55:21.833Z,2.60
2022-09-09T22:58:24.987Z,2.70
2022-09-09T23:01:29.185Z,2.87
2022-09-09T23:04:32.166Z,2.33
2022-09-09T23:07:35.638Z,2.70
2022-09-09T23:10:43.055Z,2.73
2022-09-09T23:13:51.917Z,2.80
2022-09-09T23:16:55.464Z,2.80
2022-09-09T23:19:58.437Z,2.50
2022-09-09T23:23:01.385Z,2.73
2022-09-09T23:26:07.058Z,3.00
2022-09-09T23:29:14.568Z,3.00
2022-09-09T23:32:17.848Z,2.80
2022-09-09T23:35:20.807Z,3.13
2022-09-09T23:38:23.799Z,3.30
2022-09-09T23:41:28.251Z,2.50
2022-09-09T23:44:31.362Z,2.90
2022-09-09T23:47:34.296Z,2.53
2022-09-09T23:50:37.238Z,2.97
2022-09-09T23:53:41.411Z,3.30
2022-09-09T23:56:45.766Z,3.20
2022-09-09T23:59:48.755Z,3.10
